Time;durP1;ratioP1;P1;durP2;ratioP2;P2;SDS_P1;SDS_P2;PMS_P1;PMS_P2;Temp;Humidity;BMP_temperature;BMP_pressure;BME280_temperature;BME280_humidity;BME280_pressure;Samples;Min_cycle;Max_cycle;Signal;HPM_P1;HPM_P2
2023/09/21 00:01:23;;;;;;;1.63;1.33;;;22.10;61.60;;;;;;5021870;28;20483;-50
2023/09/21 00:03:54;;;;;;;2.00;1.60;;;22.10;61.70;;;;;;5011601;28;20468;-52
2023/09/21 00:06:23;;;;;;;1.90;1.70;;;22.10;61.60;;;;;;5010972;28;20448;-51
2023/09/21 00:08:53;;;;;;;2.27;1.57;;;22.10;61.70;;;;;;5017158;28;20828;-52
2023/09/21 00:11:21;;;;;;;1.30;1.17;;;22.10;61.80;;;;;;5020952;28;20844;-51
2023/09/21 00:13:51;;;;;;;1.73;1.63;;;22.10;61.60;;;;;;5010039;28;20480;-50
2023/09/21 00:16:20;;;;;;;2.47;1.80;;;22.10;61.70;;;;;;5019043;28;20436;-51
2023/09/21 00:18:48;;;;;;;1.70;1.60;;;22.10;61.80;;;;;;5018997;28;20897;-51
2023/09/21 00:21:17;;;;;;;2.10;1.10;;;22.10;61.90;;;;;;5018638;28;20551;-51
2023/09/21 00:23:47;;;;;;;2.40;1.83;;;22.10;61.80;;;;;;5022127;28;20558;-52
2023/09/21 00:26:16;;;;;;;1.90;1.60;;;22.10;61.80;;;;;;5016502;28;20507;-53
2023/09/21 00:28:51;;;;;;;2.50;1.40;;;22.10;61.80;;;;;;5011576;28;20469;-50
2023/09/21 00:31:21;;;;;;;2.20;1.97;;;22.10;61.80;;;;;;5005021;28;20941;-52
2023/09/21 00:33:49;;;;;;;2.40;1.87;;;22.10;61.90;;;;;;5018643;28;20545;-51
2023/09/21 00:36:17;;;;;;;2.03;1.40;;;22.10;61.70;;;;;;4993903;28;20443;-52
2023/09/21 00:38:47;;;;;;;1.97;1.60;;;22.10;61.70;;;;;;5014341;28;21048;-51
2023/09/21 00:41:17;;;;;;;3.70;1.80;;;22.10;61.90;;;;;;4998640;28;20564;-51
2023/09/21 00:43:45;;;;;;;1.77;1.63;;;22.10;61.70;;;;;;4992416;28;20519;-50
2023/09/21 00:46:14;;;;;;;1.73;1.40;;;22.10;61.70;;;;;;5018881;28;20444;-52
2023/09/21 00:48:44;;;;;;;1.43;1.33;;;22.00;61.50;;;;;;5011678;28;20474;-50
2023/09/21 00:51:16;;;;;;;2.10;1.63;;;22.00;61.70;;;;;;5011958;28;20483;-51
2023/09/21 00:53:47;;;;;;;1.50;1.40;;;22.00;61.70;;;;;;5012468;28;20476;-50
2023/09/21 00:56:18;;;;;;;2.00;1.50;;;22.10;61.70;;;;;;5010646;28;20448;-50
2023/09/21 00:58:49;;;;;;;1.93;1.50;;;22.00;61.60;;;;;;5008522;28;20472;-50
2023/09/21 01:01:21;;;;;;;1.47;1.37;;;22.00;61.70;;;;;;4999135;28;20983;-51
2023/09/21 01:03:53;;;;;;;2.30;1.60;;;22.00;61.40;;;;;;4997174;28;20468;-51
2023/09/21 01:06:23;;;;;;;2.07;1.87;;;22.00;61.50;;;;;;4993608;28;20459;-50
2023/09/21 01:08:52;;;;;;;1.50;1.20;;;22.00;61.30;;;;;;5016291;28;20507;-51
2023/09/21 01:11:21;;;;;;;1.83;1.60;;;22.00;61.40;;;;;;4996555;28;20929;-50
2023/09/21 01:13:51;;;;;;;2.00;1.70;;;22.00;61.70;;;;;;5004711;28;21082;-50
2023/09/21 01:16:23;;;;;;;1.93;1.50;;;22.00;61.70;;;;;;5015544;28;20615;-50
2023/09/21 01:18:53;;;;;;;2.53;1.67;;;22.00;61.60;;;;;;5001844;28;20469;-51
2023/09/21 01:21:34;;;;;;;2.67;1.50;;;22.00;61.60;;;;;;4997837;28;20527;-51
2023/09/21 01:24:05;;;;;;;1.70;1.37;;;22.00;61.60;;;;;;4998156;28;20828;-51
2023/09/21 01:26:33;;;;;;;3.00;2.23;;;22.00;61.50;;;;;;5000268;28;20997;-51
2023/09/21 01:29:02;;;;;;;1.57;1.47;;;22.00;61.60;;;;;;5015358;28;20464;-51
2023/09/21 01:31:30;;;;;;;1.77;1.50;;;22.00;61.40;;;;;;5017438;28;20507;-51
2023/09/21 01:34:00;;;;;;;1.70;1.50;;;22.00;61.50;;;;;;5018696;28;20476;-51
2023/09/21 01:36:28;;;;;;;2.30;1.90;;;22.00;61.70;;;;;;5012136;28;20460;-51
2023/09/21 01:38:58;;;;;;;2.53;1.50;;;22.00;61.60;;;;;;5013542;28;20468;-50
2023/09/21 01:41:29;;;;;;;2.10;1.47;;;22.00;61.80;;;;;;5002648;28;20456;-50
2023/09/21 01:43:57;;;;;;;2.17;1.63;;;21.90;61.80;;;;;;5015184;28;20480;-49
2023/09/21 01:46:25;;;;;;;2.00;1.80;;;22.00;61.80;;;;;;5015425;28;20435;-50
2023/09/21 01:48:54;;;;;;;3.43;1.90;;;21.90;61.80;;;;;;4996865;28;20496;-50
2023/09/21 01:51:22;;;;;;;2.00;1.70;;;22.00;62.00;;;;;;5012290;28;20971;-49
2023/09/21 01:53:53;;;;;;;1.80;1.67;;;22.00;61.80;;;;;;4997420;28;20488;-49
2023/09/21 01:56:21;;;;;;;1.50;1.40;;;21.90;61.90;;;;;;5012876;28;20465;-50
2023/09/21 01:58:51;;;;;;;2.03;1.57;;;21.90;61.80;;;;;;5014323;28;20865;-50
2023/09/21 02:01:19;;;;;;;4.17;1.73;;;21.90;61.70;;;;;;4994895;28;21033;-50
2023/09/21 02:03:47;;;;;;;1.53;1.43;;;21.90;61.80;;;;;;4997043;28;20988;-50
2023/09/21 02:06:16;;;;;;;2.33;1.50;;;21.90;61.90;;;;;;5014681;28;20472;-50
2023/09/21 02:08:44;;;;;;;2.10;1.60;;;21.90;61.90;;;;;;4998764;28;20979;-50
2023/09/21 02:11:13;;;;;;;2.60;1.67;;;21.90;61.80;;;;;;5016885;28;20437;-50
2023/09/21 02:13:42;;;;;;;1.70;1.53;;;21.90;62.00;;;;;;5013593;28;20449;-50
2023/09/21 02:16:14;;;;;;;2.97;2.00;;;21.90;61.90;;;;;;4996338;28;20459;-52
2023/09/21 02:18:44;;;;;;;2.13;1.93;;;21.90;61.80;;;;;;5016911;28;20864;-50
2023/09/21 02:21:17;;;;;;;2.63;1.60;;;21.90;62.00;;;;;;5014410;28;20627;-50
2023/09/21 02:23:45;;;;;;;1.50;1.30;;;21.80;62.00;;;;;;4997336;28;20530;-50
2023/09/21 02:26:14;;;;;;;1.53;1.43;;;21.90;62.10;;;;;;5015107;28;20790;-50
2023/09/21 02:28:43;;;;;;;2.00;1.40;;;21.90;62.10;;;;;;5012258;28;20527;-50
2023/09/21 02:31:12;;;;;;;3.00;1.50;;;21.90;61.90;;;;;;5014615;28;20875;-50
2023/09/21 02:33:42;;;;;;;2.07;1.57;;;21.80;62.00;;;;;;4996413;28;20476;-50
2023/09/21 02:36:19;;;;;;;1.70;1.50;;;21.90;62.00;;;;;;4993274;28;20441;-50
2023/09/21 02:38:47;;;;;;;1.73;1.40;;;21.80;62.00;;;;;;5013672;28;20577;-50
2023/09/21 02:41:15;;;;;;;2.13;1.70;;;21.90;62.10;;;;;;5014919;28;21174;-50
2023/09/21 02:43:45;;;;;;;2.00;1.40;;;21.80;62.00;;;;;;5009394;28;20476;-50
2023/09/21 02:46:15;;;;;;;1.97;1.50;;;21.90;62.10;;;;;;5012994;28;20429;-50
2023/09/21 02:48:44;;;;;;;1.83;1.73;;;21.90;61.90;;;;;;4996176;28;20472;-50
2023/09/21 02:51:14;;;;;;;1.57;1.47;;;21.80;62.10;;;;;;4994945;28;20535;-50
2023/09/21 02:53:44;;;;;;;2.33;1.63;;;21.80;61.90;;;;;;5012645;28;20816;-50
2023/09/21 02:56:12;;;;;;;2.00;1.67;;;21.90;61.90;;;;;;4998344;28;20437;-49
2023/09/21 02:58:41;;;;;;;3.20;1.37;;;21.90;62.10;;;;;;4992504;28;20504;-50
2023/09/21 03:01:11;;;;;;;1.67;1.50;;;21.80;62.80;;;;;;4996568;28;20437;-49
2023/09/21 03:03:41;;;;;;;1.70;1.50;;;21.90;62.30;;;;;;5013517;28;20472;-50
2023/09/21 03:06:12;;;;;;;1.57;1.47;;;21.90;62.20;;;;;;5012127;28;20472;-49
2023/09/21 03:08:41;;;;;;;2.53;1.53;;;21.80;62.00;;;;;;4999912;28;20469;-50
2023/09/21 03:11:11;;;;;;;1.70;1.60;;;21.80;62.00;;;;;;5000959;28;20961;-50
2023/09/21 03:13:39;;;;;;;1.57;1.47;;;21.80;62.10;;;;;;4997604;28;20477;-49
2023/09/21 03:16:12;;;;;;;2.60;1.60;;;21.80;62.10;;;;;;5012561;28;20436;-50
2023/09/21 03:18:47;;;;;;;2.53;1.60;;;21.80;62.10;;;;;;4992080;28;20467;-49
2023/09/21 03:21:16;;;;;;;2.30;1.73;;;21.80;62.30;;;;;;4992262;28;20448;-49
2023/09/21 03:23:46;;;;;;;2.27;2.07;;;21.80;63.40;;;;;;4993778;28;20572;-49
2023/09/21 03:26:15;;;;;;;2.07;1.60;;;21.80;62.10;;;;;;5014394;28;20822;-49
2023/09/21 03:28:45;;;;;;;4.17;1.80;;;21.70;62.00;;;;;;5014462;28;20530;-50
2023/09/21 03:31:16;;;;;;;2.93;2.17;;;21.80;62.20;;;;;;5018060;28;20440;-49
2023/09/21 03:33:47;;;;;;;2.13;1.70;;;21.70;62.20;;;;;;4996171;28;20469;-49
2023/09/21 03:36:16;;;;;;;2.53;1.93;;;21.70;62.10;;;;;;4990220;28;20458;-50
2023/09/21 03:38:47;;;;;;;2.00;1.70;;;21.80;62.20;;;;;;5007809;28;21093;-50
2023/09/21 03:41:16;;;;;;;2.00;1.70;;;21.70;62.10;;;;;;5011419;28;20448;-49
2023/09/21 03:43:44;;;;;;;2.33;1.50;;;21.80;62.10;;;;;;4995361;28;20855;-50
2023/09/21 03:46:12;;;;;;;1.70;1.60;;;21.70;62.20;;;;;;4997637;28;20439;-50
2023/09/21 03:48:41;;;;;;;2.27;1.70;;;21.80;62.20;;;;;;5013446;28;20456;-49
2023/09/21 03:51:12;;;;;;;1.93;1.73;;;21.70;62.20;;;;;;5013687;28;20521;-50
2023/09/21 03:53:40;;;;;;;1.60;1.47;;;21.70;62.20;;;;;;4993103;28;20467;-49
2023/09/21 03:56:08;;;;;;;1.70;1.10;;;21.80;62.10;;;;;;4995230;28;20449;-49
2023/09/21 03:58:37;;;;;;;2.47;1.67;;;21.70;62.20;;;;;;4990618;28;21012;-49
2023/09/21 04:01:07;;;;;;;2.17;1.37;;;21.70;62.30;;;;;;4993123;28;20437;-49
2023/09/21 04:03:36;;;;;;;2.40;1.90;;;21.80;62.50;;;;;;5013268;28;20563;-50
2023/09/21 04:06:06;;;;;;;1.70;1.50;;;21.80;62.30;;;;;;4993622;28;20447;-49
2023/09/21 04:08:36;;;;;;;1.50;1.40;;;21.70;62.10;;;;;;5011131;28;20536;-49
2023/09/21 04:11:04;;;;;;;2.00;1.73;;;21.70;62.00;;;;;;5016570;28;20429;-50
2023/09/21 04:13:33;;;;;;;4.03;1.83;;;21.70;62.10;;;;;;5011528;28;20461;-49
2023/09/21 04:16:05;;;;;;;2.77;1.90;;;21.70;62.20;;;;;;5019413;28;20482;-50
2023/09/21 04:18:34;;;;;;;1.80;1.53;;;21.70;62.10;;;;;;5014107;28;20476;-49
2023/09/21 04:21:07;;;;;;;2.13;1.60;;;21.70;62.10;;;;;;4996502;28;20531;-50
2023/09/21 04:23:48;;;;;;;2.50;1.50;;;21.70;62.20;;;;;;4992519;28;21111;-50
2023/09/21 04:26:17;;;;;;;1.73;1.30;;;21.70;62.20;;;;;;5000316;28;20476;-49
2023/09/21 04:28:49;;;;;;;1.93;1.57;;;21.70;62.40;;;;;;4999987;28;20974;-50
2023/09/21 04:31:19;;;;;;;3.00;2.07;;;21.70;62.30;;;;;;5008474;28;20448;-49
2023/09/21 04:33:47;;;;;;;1.67;1.53;;;21.70;62.20;;;;;;5020935;28;20468;-50
2023/09/21 04:36:16;;;;;;;2.37;2.00;;;21.70;62.10;;;;;;4994325;28;20445;-49
2023/09/21 04:38:48;;;;;;;1.53;1.43;;;21.60;62.10;;;;;;5004076;28;20475;-50
2023/09/21 04:41:18;;;;;;;2.63;1.77;;;21.70;62.30;;;;;;5015273;28;20958;-50
2023/09/21 04:43:47;;;;;;;3.07;2.00;;;21.70;62.30;;;;;;4992214;28;20578;-49
2023/09/21 04:46:17;;;;;;;2.13;1.73;;;21.70;62.30;;;;;;4994537;28;20964;-49
2023/09/21 04:48:46;;;;;;;2.10;1.50;;;21.60;62.10;;;;;;4997361;28;21010;-50
2023/09/21 04:51:16;;;;;;;3.67;1.77;;;21.70;62.20;;;;;;5006060;28;20783;-50
2023/09/21 04:53:45;;;;;;;2.37;1.80;;;21.60;62.10;;;;;;4988241;28;20854;-50
2023/09/21 04:56:14;;;;;;;2.87;2.20;;;21.70;62.40;;;;;;4994404;28;20551;-50
2023/09/21 04:58:43;;;;;;;2.40;1.70;;;21.70;62.50;;;;;;5012210;28;20837;-49
2023/09/21 05:01:12;;;;;;;2.20;1.57;;;21.60;62.40;;;;;;5000596;28;20503;-50
2023/09/21 05:03:43;;;;;;;1.73;1.20;;;21.60;62.40;;;;;;4994226;28;20564;-50
2023/09/21 05:06:11;;;;;;;1.97;1.77;;;21.70;62.50;;;;;;4990861;28;20712;-49
2023/09/21 05:08:39;;;;;;;3.50;1.40;;;21.60;62.40;;;;;;5011689;28;20518;-50
2023/09/21 05:11:07;;;;;;;1.80;1.40;;;21.60;62.50;;;;;;5020751;28;20949;-49
2023/09/21 05:13:36;;;;;;;2.13;1.93;;;21.60;62.50;;;;;;5012224;28;20484;-50
2023/09/21 05:16:06;;;;;;;2.90;1.40;;;21.60;62.50;;;;;;5015942;28;20543;-49
2023/09/21 05:18:34;;;;;;;2.53;1.83;;;21.60;62.50;;;;;;5018070;28;20468;-50
2023/09/21 05:21:04;;;;;;;2.00;1.70;;;21.60;62.50;;;;;;5016500;28;20528;-49
2023/09/21 05:23:33;;;;;;;1.97;1.70;;;21.60;62.50;;;;;;5017899;28;20468;-49
2023/09/21 05:26:02;;;;;;;1.90;1.70;;;21.60;62.60;;;;;;5019707;28;20437;-49
2023/09/21 05:28:31;;;;;;;2.50;1.53;;;21.60;62.60;;;;;;5013453;28;20476;-50
2023/09/21 05:31:00;;;;;;;1.40;1.10;;;21.60;62.70;;;;;;5011755;28;20441;-50
2023/09/21 05:33:30;;;;;;;2.17;1.73;;;21.60;64.00;;;;;;5014332;28;20503;-49
2023/09/21 05:36:04;;;;;;;1.87;1.67;;;21.60;62.60;;;;;;5009472;28;20961;-49
2023/09/21 05:38:33;;;;;;;2.43;1.83;;;21.60;62.80;;;;;;5017800;28;20564;-50
2023/09/21 05:41:03;;;;;;;3.83;2.40;;;21.60;62.80;;;;;;5012959;28;20509;-49
2023/09/21 05:43:32;;;;;;;2.63;1.60;;;21.60;62.90;;;;;;5014624;28;20472;-50
2023/09/21 05:46:00;;;;;;;2.23;1.73;;;21.60;62.80;;;;;;5013370;28;20445;-50
2023/09/21 05:48:29;;;;;;;3.10;1.90;;;21.60;62.80;;;;;;5015517;28;21163;-50
2023/09/21 05:50:57;;;;;;;1.73;1.57;;;21.60;63.00;;;;;;5008598;28;20448;-49
2023/09/21 05:53:26;;;;;;;2.27;1.73;;;21.60;63.00;;;;;;5014622;28;21044;-50
2023/09/21 05:55:54;;;;;;;1.83;1.70;;;21.60;62.90;;;;;;5016739;28;20441;-50
2023/09/21 05:58:22;;;;;;;1.80;1.60;;;21.60;63.00;;;;;;5010602;28;20518;-49
2023/09/21 06:00:51;;;;;;;2.50;2.00;;;21.50;62.90;;;;;;5014882;28;20945;-50
2023/09/21 06:03:20;;;;;;;2.17;1.70;;;21.50;62.90;;;;;;5020422;28;20554;-51
2023/09/21 06:05:49;;;;;;;2.07;1.63;;;21.50;63.00;;;;;;5013827;28;20510;-50
2023/09/21 06:08:19;;;;;;;1.57;1.43;;;21.50;63.00;;;;;;5012103;28;20467;-50
2023/09/21 06:10:47;;;;;;;2.20;1.77;;;21.50;63.10;;;;;;5019028;28;20429;-49
2023/09/21 06:13:15;;;;;;;2.03;1.60;;;21.50;63.10;;;;;;5020480;28;20542;-49
2023/09/21 06:15:46;;;;;;;2.33;2.13;;;21.50;64.40;;;;;;5010527;28;20463;-49
2023/09/21 06:18:17;;;;;;;2.10;1.47;;;21.50;63.20;;;;;;5013673;28;20530;-50
2023/09/21 06:20:45;;;;;;;2.10;1.77;;;21.50;63.20;;;;;;5013525;28;20438;-49
2023/09/21 06:23:17;;;;;;;2.03;1.57;;;21.50;63.20;;;;;;5019707;28;21069;-49
2023/09/21 06:25:45;;;;;;;1.97;1.70;;;21.50;63.30;;;;;;5010538;28;20469;-49
2023/09/21 06:28:15;;;;;;;2.70;1.60;;;21.50;63.30;;;;;;5010435;28;20476;-49
2023/09/21 06:30:44;;;;;;;3.43;2.30;;;21.50;63.40;;;;;;5009872;28;20447;-49
2023/09/21 06:33:13;;;;;;;2.53;2.00;;;21.50;63.30;;;;;;5011982;28;20484;-50
2023/09/21 06:35:42;;;;;;;1.60;1.50;;;21.50;63.40;;;;;;5013498;28;20454;-49
2023/09/21 06:38:10;;;;;;;2.27;1.97;;;21.50;63.50;;;;;;5010029;28;20583;-50
2023/09/21 06:40:40;;;;;;;5.30;1.80;;;21.50;63.50;;;;;;5015985;28;20448;-50
2023/09/21 06:43:08;;;;;;;2.43;1.87;;;21.50;63.60;;;;;;5016060;28;20476;-50
2023/09/21 06:45:36;;;;;;;1.63;1.53;;;21.50;63.60;;;;;;5008682;28;20460;-49
2023/09/21 06:48:05;;;;;;;2.13;1.60;;;21.50;63.60;;;;;;5011142;28;20468;-51
2023/09/21 06:50:33;;;;;;;2.90;2.20;;;21.50;64.30;;;;;;5012592;28;20460;-51
2023/09/21 06:53:01;;;;;;;3.33;1.93;;;21.50;63.80;;;;;;5015486;28;20472;-49
2023/09/21 06:55:30;;;;;;;3.53;2.00;;;21.40;64.00;;;;;;5015913;28;20441;-49
2023/09/21 06:57:59;;;;;;;2.63;2.40;;;21.40;63.90;;;;;;5012069;28;20468;-49
2023/09/21 07:00:27;;;;;;;2.03;1.83;;;21.40;64.00;;;;;;5011802;28;20444;-49
2023/09/21 07:02:56;;;;;;;3.53;1.70;;;21.40;64.10;;;;;;4994796;28;20491;-50
2023/09/21 07:05:24;;;;;;;2.50;2.00;;;21.40;64.20;;;;;;5010130;28;20817;-50
2023/09/21 07:07:53;;;;;;;3.63;1.70;;;21.40;64.20;;;;;;5013244;28;20997;-50
2023/09/21 07:10:22;;;;;;;2.60;2.10;;;21.40;64.20;;;;;;5015771;28;20937;-50
2023/09/21 07:12:50;;;;;;;1.87;1.67;;;21.40;64.20;;;;;;5011164;28;20504;-49
2023/09/21 07:15:21;;;;;;;2.40;2.20;;;21.40;64.30;;;;;;5011918;28;20451;-49
2023/09/21 07:17:50;;;;;;;2.23;1.90;;;21.40;64.40;;;;;;5012905;28;20480;-50
2023/09/21 07:20:23;;;;;;;4.00;2.23;;;21.40;64.50;;;;;;5012281;28;20984;-49
2023/09/21 07:22:51;;;;;;;3.67;2.23;;;21.40;64.60;;;;;;5012054;28;20459;-50
2023/09/21 07:25:20;;;;;;;3.50;2.20;;;21.40;64.60;;;;;;5013712;28;20495;-50
2023/09/21 07:27:48;;;;;;;2.00;1.70;;;21.40;64.60;;;;;;5018113;28;20479;-49
2023/09/21 07:30:16;;;;;;;2.70;2.20;;;21.40;64.90;;;;;;4998168;28;20456;-49
2023/09/21 07:32:46;;;;;;;2.30;1.73;;;21.40;65.20;;;;;;5011218;28;20465;-49
2023/09/21 07:35:15;;;;;;;2.40;1.90;;;21.40;65.20;;;;;;5010862;28;20449;-49
2023/09/21 07:37:46;;;;;;;3.70;1.97;;;21.40;65.20;;;;;;5011571;28;20444;-49
2023/09/21 07:40:14;;;;;;;3.00;2.03;;;21.40;65.20;;;;;;5009830;28;20437;-49
2023/09/21 07:42:45;;;;;;;2.73;2.37;;;21.40;65.20;;;;;;4995955;28;20460;-50
2023/09/21 07:45:13;;;;;;;4.23;2.00;;;21.40;65.20;;;;;;5017631;28;20460;-50
2023/09/21 07:47:42;;;;;;;3.13;2.70;;;21.40;65.20;;;;;;5012562;28;20663;-49
2023/09/21 07:50:12;;;;;;;2.67;2.00;;;21.40;65.20;;;;;;5012041;28;21009;-49
2023/09/21 07:52:41;;;;;;;2.67;2.27;;;21.40;65.20;;;;;;5010602;28;20452;-49
2023/09/21 07:55:10;;;;;;;3.07;2.00;;;21.40;65.20;;;;;;5011514;28;20938;-49
2023/09/21 07:57:39;;;;;;;1.90;1.70;;;21.40;65.20;;;;;;5008590;28;20459;-49
2023/09/21 08:00:09;;;;;;;3.10;2.07;;;21.40;65.20;;;;;;5019986;28;20443;-49
2023/09/21 08:02:37;;;;;;;5.33;2.13;;;21.40;65.20;;;;;;5012064;28;20449;-49
2023/09/21 08:05:06;;;;;;;2.63;2.43;;;21.40;65.20;;;;;;5009995;28;20974;-50
2023/09/21 08:07:37;;;;;;;3.40;2.27;;;21.40;65.20;;;;;;5012853;28;20527;-49
2023/09/21 08:10:06;;;;;;;3.13;2.20;;;21.40;65.20;;;;;;5016051;28;20432;-49
2023/09/21 08:12:36;;;;;;;2.80;1.97;;;21.40;65.20;;;;;;5015132;28;20479;-49
2023/09/21 08:15:06;;;;;;;2.40;2.17;;;21.40;65.20;;;;;;5011385;28;20447;-49
2023/09/21 08:17:36;;;;;;;3.17;1.70;;;21.40;65.20;;;;;;5008772;28;20447;-49
2023/09/21 08:20:05;;;;;;;2.60;1.90;;;21.40;65.20;;;;;;5013820;28;20444;-49
2023/09/21 08:22:35;;;;;;;2.07;1.80;;;21.40;65.20;;;;;;5013947;28;20519;-50
2023/09/21 08:25:04;;;;;;;2.93;2.00;;;21.40;65.20;;;;;;5007233;28;20824;-49
2023/09/21 08:27:33;;;;;;;1.70;1.43;;;21.40;65.20;;;;;;5012231;28;20829;-49
2023/09/21 08:30:03;;;;;;;3.00;1.80;;;21.40;65.20;;;;;;5015138;28;20498;-49
2023/09/21 08:32:32;;;;;;;2.60;1.60;;;21.40;65.20;;;;;;5013475;28;20447;-49
2023/09/21 08:35:01;;;;;;;2.70;1.90;;;21.40;65.20;;;;;;5012666;28;20542;-49
2023/09/21 08:37:31;;;;;;;2.30;1.63;;;21.40;65.20;;;;;;5014741;28;20451;-49
2023/09/21 08:40:05;;;;;;;2.60;1.90;;;21.40;65.20;;;;;;5016530;28;20523;-50
2023/09/21 08:42:36;;;;;;;2.30;2.00;;;21.40;65.20;;;;;;5004903;28;20550;-50
2023/09/21 08:45:07;;;;;;;2.87;2.37;;;21.40;65.20;;;;;;5015344;28;21098;-49
2023/09/21 08:47:38;;;;;;;2.77;1.73;;;21.40;65.30;;;;;;5012423;28;20489;-49
2023/09/21 08:50:07;;;;;;;3.03;1.80;;;21.40;65.20;;;;;;5011084;28;20450;-49
2023/09/21 08:52:36;;;;;;;2.30;1.93;;;21.40;65.20;;;;;;5015009;28;20461;-50
2023/09/21 08:55:10;;;;;;;2.53;2.27;;;21.40;65.20;;;;;;5008681;28;20456;-49
2023/09/21 08:57:39;;;;;;;1.93;1.60;;;21.40;65.20;;;;;;5009971;28;20515;-50
2023/09/21 09:00:08;;;;;;;2.73;1.87;;;21.40;65.20;;;;;;5009872;28;20452;-50
2023/09/21 09:02:37;;;;;;;2.17;1.77;;;21.40;65.20;;;;;;4993197;28;20500;-49
2023/09/21 09:05:08;;;;;;;2.70;1.70;;;21.40;65.20;;;;;;5015812;28;20443;-49
2023/09/21 09:07:40;;;;;;;2.60;1.70;;;21.40;65.20;;;;;;5013863;28;20483;-50
2023/09/21 09:10:15;;;;;;;2.37;1.73;;;21.40;65.20;;;;;;5019007;28;20523;-49
2023/09/21 09:12:43;;;;;;;3.30;1.83;;;21.40;65.30;;;;;;5009212;28;20464;-49
2023/09/21 09:15:12;;;;;;;1.80;1.60;;;21.40;65.20;;;;;;5008328;28;20449;-49
2023/09/21 09:17:41;;;;;;;2.17;1.97;;;21.30;65.10;;;;;;5006021;28;20429;-49
2023/09/21 09:20:13;;;;;;;2.37;1.70;;;21.40;65.20;;;;;;5015303;28;20441;-50
2023/09/21 09:22:41;;;;;;;1.97;1.53;;;21.40;65.20;;;;;;5011374;28;20453;-49
2023/09/21 09:25:11;;;;;;;2.13;1.43;;;21.40;65.20;;;;;;5018832;28;20436;-49
2023/09/21 09:27:41;;;;;;;1.90;1.80;;;21.40;65.20;;;;;;5013124;28;20465;-49
2023/09/21 09:30:12;;;;;;;1.83;1.60;;;21.40;65.20;;;;;;5012626;28;20440;-49
2023/09/21 09:32:41;;;;;;;3.00;1.93;;;21.30;65.20;;;;;;5018299;28;20448;-49
2023/09/21 09:35:13;;;;;;;2.27;1.70;;;21.30;65.20;;;;;;5012844;28;20444;-49
2023/09/21 09:37:43;;;;;;;2.10;1.67;;;21.40;65.20;;;;;;5002627;28;20463;-50
2023/09/21 09:40:14;;;;;;;2.13;1.93;;;21.30;65.60;;;;;;5015249;28;20828;-49
2023/09/21 09:42:45;;;;;;;3.13;2.07;;;21.30;65.50;;;;;;5013445;28;20463;-53
2023/09/21 09:45:19;;;;;;;1.60;1.33;;;21.30;65.60;;;;;;5007408;28;20502;-50
2023/09/21 09:47:54;;;;;;;1.97;1.77;;;21.30;65.90;;;;;;5018492;28;20459;-49
2023/09/21 09:50:25;;;;;;;2.10;1.77;;;21.30;65.80;;;;;;5011101;28;20450;-49
2023/09/21 09:53:03;;;;;;;3.30;1.90;;;21.30;65.90;;;;;;5013269;28;20834;-49
2023/09/21 09:55:36;;;;;;;3.83;2.07;;;21.30;66.00;;;;;;5014883;28;20532;-49
2023/09/21 09:58:06;;;;;;;2.50;1.70;;;21.30;66.10;;;;;;5019188;28;20464;-49
2023/09/21 10:00:35;;;;;;;1.83;1.63;;;21.30;65.90;;;;;;5016336;28;20447;-49
2023/09/21 10:03:05;;;;;;;4.40;1.90;;;21.30;66.00;;;;;;5019148;28;20469;-49
2023/09/21 10:05:35;;;;;;;2.60;1.80;;;21.30;65.80;;;;;;5000757;28;20452;-49
2023/09/21 10:08:07;;;;;;;2.23;2.00;;;21.30;65.90;;;;;;5014508;28;21044;-50
2023/09/21 10:10:44;;;;;;;2.23;1.97;;;21.30;65.90;;;;;;5011228;28;20922;-50
2023/09/21 10:13:12;;;;;;;1.93;1.67;;;21.30;66.10;;;;;;5014325;28;21013;-49
2023/09/21 10:15:43;;;;;;;2.40;1.77;;;21.30;66.10;;;;;;5014060;28;21009;-49
2023/09/21 10:18:11;;;;;;;2.10;1.90;;;21.30;66.30;;;;;;5020992;28;20480;-50
2023/09/21 10:20:39;;;;;;;3.43;1.97;;;21.30;66.10;;;;;;5013611;28;20567;-49
2023/09/21 10:23:09;;;;;;;2.37;1.97;;;21.30;66.20;;;;;;5013666;28;20472;-50
2023/09/21 10:25:43;;;;;;;2.20;1.77;;;21.30;66.20;;;;;;5017692;28;20436;-50
2023/09/21 10:28:39;;;;;;;1.70;1.33;;;21.30;66.30;;;;;;5020305;28;20475;-49
2023/09/21 10:31:21;;;;;;;1.93;1.73;;;21.30;66.00;;;;;;4984979;28;20448;-49
2023/09/21 10:34:05;;;;;;;2.90;1.90;;;21.30;66.10;;;;;;5011334;28;20480;-49
2023/09/21 10:36:38;;;;;;;3.30;1.83;;;21.30;66.10;;;;;;5009528;28;20450;-49
2023/09/21 10:39:28;;;;;;;2.63;2.23;;;21.30;66.20;;;;;;5016380;28;20568;-49
2023/09/21 10:42:35;;;;;;;3.07;2.20;;;21.30;66.30;;;;;;5012374;28;20432;-49
2023/09/21 10:45:07;;;;;;;3.70;1.90;;;21.30;66.30;;;;;;5014029;28;20530;-50
2023/09/21 10:47:47;;;;;;;2.60;2.17;;;21.30;66.30;;;;;;5012110;28;20464;-49
2023/09/21 10:50:18;;;;;;;2.10;1.70;;;21.30;66.20;;;;;;5017633;28;20823;-49
2023/09/21 10:52:48;;;;;;;2.67;2.23;;;21.30;66.30;;;;;;5016766;28;21846;-49
2023/09/21 10:55:17;;;;;;;2.43;1.80;;;21.30;66.50;;;;;;4999638;28;20827;-49
2023/09/21 10:57:49;;;;;;;2.20;1.77;;;21.30;66.30;;;;;;5008539;28;20941;-49
2023/09/21 11:00:20;;;;;;;3.13;2.20;;;21.30;66.20;;;;;;5013405;28;20452;-49
2023/09/21 11:02:49;;;;;;;3.37;2.10;;;21.30;66.40;;;;;;5009013;28;20515;-49
2023/09/21 11:05:19;;;;;;;2.97;2.10;;;21.30;66.40;;;;;;5010687;28;20452;-49
2023/09/21 11:07:50;;;;;;;3.03;2.40;;;21.30;66.20;;;;;;4994824;28;20475;-49
2023/09/21 11:10:20;;;;;;;2.70;1.90;;;21.30;66.30;;;;;;5014902;28;20458;-50
2023/09/21 11:12:51;;;;;;;1.97;1.77;;;21.30;66.50;;;;;;5015527;28;20465;-50
2023/09/21 11:15:20;;;;;;;3.53;2.50;;;21.30;66.60;;;;;;5012113;28;20451;-49
2023/09/21 11:17:48;;;;;;;5.53;2.23;;;21.30;66.50;;;;;;5015072;28;20471;-50
2023/09/21 11:20:21;;;;;;;1.97;1.60;;;21.30;66.50;;;;;;5015947;28;21053;-49
2023/09/21 11:22:50;;;;;;;2.70;1.87;;;21.20;66.40;;;;;;5012794;28;20473;-49
2023/09/21 11:25:20;;;;;;;3.57;1.30;;;21.30;66.60;;;;;;5017639;28;20429;-50
2023/09/21 11:27:51;;;;;;;2.33;1.80;;;21.30;66.60;;;;;;5013589;28;20981;-50
2023/09/21 11:30:22;;;;;;;2.57;1.80;;;21.30;66.60;;;;;;5010937;28;20448;-49
2023/09/21 11:32:51;;;;;;;3.17;2.07;;;21.30;66.80;;;;;;5016719;28;20472;-49
2023/09/21 11:35:21;;;;;;;2.50;1.80;;;21.30;67.00;;;;;;5008587;28;20452;-49
2023/09/21 11:37:50;;;;;;;2.70;2.03;;;21.20;66.80;;;;;;5016076;28;20452;-49
2023/09/21 11:40:22;;;;;;;4.20;1.80;;;21.30;67.20;;;;;;5018365;28;20443;-50
2023/09/21 11:42:58;;;;;;;2.83;1.67;;;21.20;67.10;;;;;;5013929;28;20461;-50
2023/09/21 11:45:27;;;;;;;3.00;2.10;;;21.20;66.80;;;;;;5011211;28;21080;-49
2023/09/21 11:47:57;;;;;;;2.20;1.50;;;21.20;67.10;;;;;;5015833;28;20518;-49
2023/09/21 11:50:30;;;;;;;1.90;1.70;;;21.30;66.90;;;;;;5016275;28;20880;-49
2023/09/21 11:52:58;;;;;;;1.83;1.10;;;21.20;67.10;;;;;;5018720;28;20475;-49
2023/09/21 11:55:27;;;;;;;2.63;2.10;;;21.20;68.00;;;;;;5013025;28;20436;-49
2023/09/21 11:58:07;;;;;;;2.63;1.50;;;21.30;66.90;;;;;;5006968;28;20872;-49
2023/09/21 12:03:23;;;;;;;1.70;1.57;;;21.20;66.70;;;;;;5013301;28;20482;-49
2023/09/21 12:05:55;;;;;;;2.17;1.97;;;21.30;67.20;;;;;;4993198;28;20466;-49
2023/09/21 12:08:25;;;;;;;3.20;2.00;;;21.30;67.40;;;;;;5014932;28;20503;-49
2023/09/21 12:10:55;;;;;;;2.23;1.70;;;21.20;67.00;;;;;;5019495;28;20451;-49
2023/09/21 12:13:24;;;;;;;2.70;1.83;;;21.20;66.90;;;;;;5015040;28;20476;-49
2023/09/21 12:15:55;;;;;;;2.90;2.23;;;21.20;67.10;;;;;;5015795;28;20506;-49
2023/09/21 12:18:26;;;;;;;1.70;1.50;;;21.20;68.20;;;;;;5012993;28;20468;-50
2023/09/21 12:20:57;;;;;;;2.70;2.20;;;21.20;66.80;;;;;;5015885;28;20449;-49
2023/09/21 12:23:26;;;;;;;3.47;2.03;;;21.20;66.90;;;;;;5012305;28;20543;-50
2023/09/21 12:25:54;;;;;;;1.80;1.50;;;21.20;67.00;;;;;;5016814;28;20447;-50
2023/09/21 12:28:24;;;;;;;2.40;2.20;;;21.20;66.80;;;;;;5014947;28;21048;-49
2023/09/21 12:30:54;;;;;;;2.23;1.67;;;21.20;66.60;;;;;;5011970;28;20441;-49
2023/09/21 12:33:23;;;;;;;2.70;2.03;;;21.20;66.50;;;;;;5015342;28;20478;-49
2023/09/21 12:35:54;;;;;;;2.70;1.97;;;21.20;66.90;;;;;;5011405;28;20441;-50
2023/09/21 12:38:23;;;;;;;2.80;2.03;;;21.20;66.90;;;;;;5013125;28;21036;-49
2023/09/21 12:40:54;;;;;;;2.53;1.87;;;21.20;67.30;;;;;;5014650;28;21753;-50
2023/09/21 12:43:23;;;;;;;3.13;1.57;;;21.20;66.80;;;;;;5016053;28;20495;-49
2023/09/21 12:45:52;;;;;;;2.10;1.80;;;21.20;66.70;;;;;;5013442;28;20813;-49
2023/09/21 12:48:20;;;;;;;2.67;1.70;;;21.30;66.40;;;;;;5013717;28;20533;-50
2023/09/21 12:50:48;;;;;;;1.50;1.40;;;21.30;66.20;;;;;;5011738;28;20453;-50
2023/09/21 12:53:16;;;;;;;2.33;1.97;;;21.20;66.20;;;;;;5011362;28;20475;-50
2023/09/21 12:55:45;;;;;;;2.63;1.63;;;21.20;66.20;;;;;;5010254;28;20449;-49
2023/09/21 12:58:14;;;;;;;2.03;1.50;;;21.20;66.10;;;;;;5012951;28;20504;-49
2023/09/21 13:00:44;;;;;;;2.50;1.50;;;21.20;66.10;;;;;;4997723;28;20464;-50
2023/09/21 13:03:14;;;;;;;2.17;1.50;;;21.30;66.10;;;;;;5009456;28;20502;-49
2023/09/21 13:05:45;;;;;;;1.90;1.60;;;21.20;65.90;;;;;;5011612;28;20453;-49